Time;durP1;ratioP1;P1;durP2;ratioP2;P2;SDS_P1;SDS_P2;PMS_P1;PMS_P2;Temp;Humidity;BMP_temperature;BMP_pressure;BME280_temperature;BME280_humidity;BME280_pressure;Samples;Min_cycle;Max_cycle;Signal;HPM_P1;HPM_P2
2023/05/11 00:00:48;;;;;;;;;;;;;;;10.61;100.00;95648.78;5084831;28;19933;-77
2023/05/11 00:03:14;;;;;;;;;;;;;;;10.62;100.00;95647.84;5086772;28;19928;-76
2023/05/11 00:05:41;;;;;;;;;;;;;;;10.64;100.00;95643.38;5082126;28;19928;-76
2023/05/11 00:08:08;;;;;;;;;;;;;;;10.64;100.00;95640.78;5087253;28;19947;-76
2023/05/11 00:10:34;;;;;;;;;;;;;;;10.68;100.00;95649.19;5084066;28;20349;-76
2023/05/11 00:13:00;;;;;;;;;;;;;;;10.70;100.00;95642.16;5086243;28;19924;-77
2023/05/11 00:15:26;;;;;;;;;;;;;;;10.64;100.00;95649.41;5080385;28;19925;-77
2023/05/11 00:17:54;;;;;;;;;;;;;;;10.59;100.00;95648.84;5085444;28;19943;-76
2023/05/11 00:20:22;;;;;;;;;;;;;;;10.59;100.00;95651.44;5089954;28;20378;-76
2023/05/11 00:22:48;;;;;;;;;;;;;;;10.51;100.00;95645.13;5084094;28;20018;-76
2023/05/11 00:25:14;;;;;;;;;;;;;;;10.55;100.00;95637.03;5077994;28;19933;-76
2023/05/11 00:27:44;;;;;;;;;;;;;;;10.55;100.00;95650.00;5078655;28;19925;-77
2023/05/11 00:30:11;;;;;;;;;;;;;;;10.64;100.00;95643.38;5091298;28;19924;-76
2023/05/11 00:32:37;;;;;;;;;;;;;;;10.56;100.00;95641.28;5073577;28;19925;-77
2023/05/11 00:35:05;;;;;;;;;;;;;;;10.53;100.00;95641.50;5080044;28;19928;-76
2023/05/11 00:37:32;;;;;;;;;;;;;;;10.48;100.00;95638.34;5082733;28;19925;-76
2023/05/11 00:39:58;;;;;;;;;;;;;;;10.43;100.00;95639.59;5085600;28;19967;-77
2023/05/11 00:42:24;;;;;;;;;;;;;;;10.41;100.00;95629.31;5083038;28;19986;-77
2023/05/11 00:44:51;;;;;;;;;;;;;;;10.42;100.00;95633.59;5085043;28;19932;-76
2023/05/11 00:47:17;;;;;;;;;;;;;;;10.42;100.00;95625.84;5081822;28;20038;-77
2023/05/11 00:49:43;;;;;;;;;;;;;;;10.35;100.00;95624.56;5087684;28;20001;-77
2023/05/11 00:52:11;;;;;;;;;;;;;;;10.33;100.00;95626.41;5084864;28;20004;-77
2023/05/11 00:54:39;;;;;;;;;;;;;;;10.28;100.00;95621.53;5086834;28;19949;-76
2023/05/11 00:57:05;;;;;;;;;;;;;;;10.32;100.00;95617.00;5084678;28;19993;-75
2023/05/11 00:59:31;;;;;;;;;;;;;;;10.25;100.00;95626.91;5089945;28;19931;-76
2023/05/11 01:01:57;;;;;;;;;;;;;;;10.27;100.00;95606.94;5092566;28;19932;-76
2023/05/11 01:04:24;;;;;;;;;;;;;;;10.27;100.00;95619.88;5084354;28;20301;-77
2023/05/11 01:06:55;;;;;;;;;;;;;;;10.28;100.00;95620.72;5092174;28;20439;-76
2023/05/11 01:09:30;;;;;;;;;;;;;;;10.24;100.00;95617.44;5087091;28;19928;-75
2023/05/11 01:12:00;;;;;;;;;;;;;;;10.22;100.00;95624.47;5091093;28;20390;-76
2023/05/11 01:14:31;;;;;;;;;;;;;;;10.03;100.00;95621.38;5082290;28;19928;-76
2023/05/11 01:17:02;;;;;;;;;;;;;;;9.93;100.00;95623.72;5080518;28;19931;-76
2023/05/11 01:19:38;;;;;;;;;;;;;;;9.97;100.00;95619.19;5089585;28;19928;-72
2023/05/11 01:22:20;;;;;;;;;;;;;;;9.92;100.00;95620.28;5077517;28;19970;-77
2023/05/11 01:24:54;;;;;;;;;;;;;;;10.00;100.00;95619.00;5088235;28;19981;-77
2023/05/11 01:27:28;;;;;;;;;;;;;;;10.05;100.00;95616.94;5084330;28;19924;-76
2023/05/11 01:30:06;;;;;;;;;;;;;;;10.11;100.00;95619.97;5092886;28;20072;-76
2023/05/11 01:32:36;;;;;;;;;;;;;;;10.10;100.00;95617.50;5080453;28;19924;-76
2023/05/11 01:35:04;;;;;;;;;;;;;;;10.16;100.00;95617.13;5089325;28;20310;-76
2023/05/11 01:37:32;;;;;;;;;;;;;;;10.24;100.00;95612.28;5079978;28;19924;-75
2023/05/11 01:40:00;;;;;;;;;;;;;;;10.27;100.00;95617.28;5083754;28;19928;-76
2023/05/11 01:42:30;;;;;;;;;;;;;;;10.11;100.00;95622.56;5088422;28;19928;-75
2023/05/11 01:44:57;;;;;;;;;;;;;;;10.08;100.00;95619.34;5091445;28;19932;-75
2023/05/11 01:47:26;;;;;;;;;;;;;;;10.14;100.00;95613.78;5085716;28;19998;-76
2023/05/11 01:49:54;;;;;;;;;;;;;;;10.34;100.00;95605.59;5091863;28;19924;-77
2023/05/11 01:52:23;;;;;;;;;;;;;;;10.27;100.00;95608.66;5087711;28;20010;-76
2023/05/11 01:54:51;;;;;;;;;;;;;;;10.17;100.00;95614.41;5074938;28;19951;-77
2023/05/11 01:57:18;;;;;;;;;;;;;;;10.17;100.00;95617.00;5074256;28;19924;-76
2023/05/11 01:59:45;;;;;;;;;;;;;;;10.18;100.00;95623.84;5086537;28;19931;-76
2023/05/11 02:02:12;;;;;;;;;;;;;;;10.36;100.00;95616.69;5089178;28;19969;-75
2023/05/11 02:04:40;;;;;;;;;;;;;;;10.32;100.00;95617.81;5083637;28;19995;-76
2023/05/11 02:07:08;;;;;;;;;;;;;;;10.23;100.00;95625.28;5083485;28;19928;-77
2023/05/11 02:09:36;;;;;;;;;;;;;;;10.18;100.00;95620.41;5089290;28;20018;-76
2023/05/11 02:12:03;;;;;;;;;;;;;;;10.13;100.00;95625.06;5089367;28;20337;-77
2023/05/11 02:14:32;;;;;;;;;;;;;;;10.08;100.00;95620.16;5088771;28;20461;-75
2023/05/11 02:17:00;;;;;;;;;;;;;;;10.10;100.00;95633.03;5089429;28;19934;-76
2023/05/11 02:19:26;;;;;;;;;;;;;;;10.13;100.00;95627.66;5074415;28;19936;-77
2023/05/11 02:21:53;;;;;;;;;;;;;;;10.17;100.00;95621.34;5089738;28;19924;-76
2023/05/11 02:24:21;;;;;;;;;;;;;;;10.27;100.00;95622.47;5074718;28;19929;-77
2023/05/11 02:26:47;;;;;;;;;;;;;;;10.34;100.00;95623.72;5079596;28;20447;-77
2023/05/11 02:29:13;;;;;;;;;;;;;;;10.35;100.00;95621.97;5079883;28;19932;-76
2023/05/11 02:31:42;;;;;;;;;;;;;;;10.35;100.00;95625.38;5083696;28;19924;-74
2023/05/11 02:34:19;;;;;;;;;;;;;;;10.27;100.00;95621.59;5086624;28;19981;-76
2023/05/11 02:36:47;;;;;;;;;;;;;;;10.13;100.00;95620.72;5090298;28;19924;-76
2023/05/11 02:39:17;;;;;;;;;;;;;;;10.06;100.00;95627.19;5075316;28;19932;-76
2023/05/11 02:41:46;;;;;;;;;;;;;;;10.00;100.00;95627.56;5087935;28;19928;-76
2023/05/11 02:44:14;;;;;;;;;;;;;;;9.99;100.00;95627.69;5079685;28;20390;-76
2023/05/11 02:46:42;;;;;;;;;;;;;;;9.99;100.00;95625.09;5084168;28;20264;-76
2023/05/11 02:49:10;;;;;;;;;;;;;;;10.02;100.00;95623.16;5080615;28;19935;-74
2023/05/11 02:51:36;;;;;;;;;;;;;;;10.08;100.00;95624.50;5089323;28;19924;-76
2023/05/11 02:54:05;;;;;;;;;;;;;;;10.10;100.00;95623.50;5084840;28;19924;-76
2023/05/11 02:56:32;;;;;;;;;;;;;;;10.12;100.00;95624.25;5074811;28;19985;-77
2023/05/11 02:59:00;;;;;;;;;;;;;;;10.14;100.00;95624.13;5076415;28;20276;-74
2023/05/11 03:01:26;;;;;;;;;;;;;;;10.14;100.00;95629.31;5086748;28;19924;-77
2023/05/11 03:03:53;;;;;;;;;;;;;;;10.03;100.00;95616.22;5079158;28;19924;-76
2023/05/11 03:06:19;;;;;;;;;;;;;;;10.10;100.00;95618.31;5085160;28;19932;-77
2023/05/11 03:08:47;;;;;;;;;;;;;;;10.16;100.00;95619.69;5086956;28;21333;-75
2023/05/11 03:11:14;;;;;;;;;;;;;;;10.18;100.00;95608.31;5087230;28;19944;-76
2023/05/11 03:13:41;;;;;;;;;;;;;;;10.23;100.00;95613.19;5079253;28;20275;-75
2023/05/11 03:16:09;;;;;;;;;;;;;;;10.22;100.00;95610.69;5090107;28;19933;-76
2023/05/11 03:18:35;;;;;;;;;;;;;;;10.15;100.00;95618.84;5083990;28;19946;-76
2023/05/11 03:21:02;;;;;;;;;;;;;;;10.17;100.00;95618.75;5089324;28;19928;-76
2023/05/11 03:23:29;;;;;;;;;;;;;;;10.15;100.00;95611.09;5084781;28;19935;-76
2023/05/11 03:25:57;;;;;;;;;;;;;;;10.15;100.00;95612.84;5088435;28;19970;-77
2023/05/11 03:28:23;;;;;;;;;;;;;;;10.04;100.00;95610.09;5086798;28;19931;-74
2023/05/11 03:30:52;;;;;;;;;;;;;;;10.09;100.00;95618.44;5088777;28;19970;-76
2023/05/11 03:33:19;;;;;;;;;;;;;;;10.00;100.00;95604.28;5083829;28;19928;-76
2023/05/11 03:35:47;;;;;;;;;;;;;;;10.02;100.00;95604.22;5087552;28;19928;-76
2023/05/11 03:38:14;;;;;;;;;;;;;;;10.08;100.00;95609.81;5084346;28;19990;-75
2023/05/11 03:40:41;;;;;;;;;;;;;;;10.08;100.00;95612.41;5083261;28;19924;-77
2023/05/11 03:43:10;;;;;;;;;;;;;;;10.10;100.00;95607.13;5082427;28;19924;-74
2023/05/11 03:45:37;;;;;;;;;;;;;;;10.00;100.00;95611.22;5084469;28;19932;-76
2023/05/11 03:48:05;;;;;;;;;;;;;;;9.85;100.00;95610.44;5084313;28;20341;-76
2023/05/11 03:50:32;;;;;;;;;;;;;;;9.79;100.00;95610.81;5089818;28;19928;-77
2023/05/11 03:52:59;;;;;;;;;;;;;;;9.61;100.00;95605.88;5071756;28;19954;-76
2023/05/11 03:55:26;;;;;;;;;;;;;;;9.71;100.00;95600.94;5078274;28;20515;-76
2023/05/11 03:57:52;;;;;;;;;;;;;;;9.65;100.00;95607.34;5083691;28;20024;-76
2023/05/11 04:00:19;;;;;;;;;;;;;;;9.56;100.00;95607.88;5088588;28;19977;-76
2023/05/11 04:02:45;;;;;;;;;;;;;;;9.64;100.00;95602.25;5078372;28;19963;-77
2023/05/11 04:05:12;;;;;;;;;;;;;;;9.62;100.00;95604.09;5077161;28;19975;-75
2023/05/11 04:07:40;;;;;;;;;;;;;;;9.70;100.00;95596.69;5071572;28;19940;-76
2023/05/11 04:10:06;;;;;;;;;;;;;;;9.80;100.00;95597.78;5079497;28;19931;-76
2023/05/11 04:12:33;;;;;;;;;;;;;;;9.85;100.00;95600.09;5082394;28;19932;-76
2023/05/11 04:14:59;;;;;;;;;;;;;;;9.94;100.00;95604.69;5076586;28;19977;-75
2023/05/11 04:17:25;;;;;;;;;;;;;;;10.00;100.00;95601.69;5085152;28;20019;-75
2023/05/11 04:19:52;;;;;;;;;;;;;;;10.06;100.00;95603.91;5091021;28;19931;-76
2023/05/11 04:22:18;;;;;;;;;;;;;;;10.09;100.00;95606.31;5084762;28;19928;-76
2023/05/11 04:24:45;;;;;;;;;;;;;;;10.05;100.00;95598.81;5084116;28;19924;-77
2023/05/11 04:27:12;;;;;;;;;;;;;;;10.03;100.00;95595.50;5084000;28;20353;-77
2023/05/11 04:29:38;;;;;;;;;;;;;;;10.03;100.00;95600.69;5088722;28;19924;-76
2023/05/11 04:32:04;;;;;;;;;;;;;;;10.01;100.00;95595.63;5086106;28;20023;-76
2023/05/11 04:34:31;;;;;;;;;;;;;;;10.02;100.00;95599.03;5087179;28;19924;-76
2023/05/11 04:36:57;;;;;;;;;;;;;;;10.04;100.00;95603.16;5088474;28;19924;-77
2023/05/11 04:39:23;;;;;;;;;;;;;;;10.08;100.00;95603.81;5085048;28;19974;-75
2023/05/11 04:41:51;;;;;;;;;;;;;;;10.10;100.00;95607.13;5090409;28;20003;-75
2023/05/11 04:44:17;;;;;;;;;;;;;;;10.00;100.00;95611.22;5086087;28;20310;-76
2023/05/11 04:46:43;;;;;;;;;;;;;;;9.86;100.00;95607.78;5088334;28;19997;-75
2023/05/11 04:49:09;;;;;;;;;;;;;;;10.01;100.00;95608.56;5087185;28;19977;-75
2023/05/11 04:51:36;;;;;;;;;;;;;;;10.09;100.00;95610.66;5093975;28;19928;-76
2023/05/11 04:54:02;;;;;;;;;;;;;;;10.12;100.00;95615.63;5087433;28;19925;-76
2023/05/11 04:56:28;;;;;;;;;;;;;;;10.17;100.00;95608.41;5083745;28;20360;-76
2023/05/11 04:58:56;;;;;;;;;;;;;;;10.16;100.00;95615.34;5088553;28;19986;-77
2023/05/11 05:01:22;;;;;;;;;;;;;;;10.18;100.00;95605.72;5070593;28;19925;-76
2023/05/11 05:03:49;;;;;;;;;;;;;;;10.21;100.00;95615.06;5089218;28;19936;-76
2023/05/11 05:06:15;;;;;;;;;;;;;;;10.11;100.00;95609.63;5092645;28;20010;-77
2023/05/11 05:08:42;;;;;;;;;;;;;;;10.08;100.00;95616.75;5076934;28;19924;-77
2023/05/11 05:11:09;;;;;;;;;;;;;;;9.94;100.00;95613.28;5088741;28;19924;-77
2023/05/11 05:13:36;;;;;;;;;;;;;;;9.93;100.00;95610.78;5089069;28;19928;-77
2023/05/11 05:16:03;;;;;;;;;;;;;;;10.10;100.00;95617.50;5092153;28;19977;-77
2023/05/11 05:18:30;;;;;;;;;;;;;;;10.15;100.00;95618.00;5089425;28;19957;-75
2023/05/11 05:20:56;;;;;;;;;;;;;;;10.07;100.00;95613.34;5090632;28;19977;-77
2023/05/11 05:23:22;;;;;;;;;;;;;;;10.04;100.00;95612.69;5083845;28;19969;-78
2023/05/11 05:25:48;;;;;;;;;;;;;;;10.11;100.00;95614.78;5090836;28;20430;-77
2023/05/11 05:28:15;;;;;;;;;;;;;;;10.12;100.00;95610.44;5084941;28;19924;-75
2023/05/11 05:30:41;;;;;;;;;;;;;;;10.07;100.00;95617.69;5078053;28;19978;-76
2023/05/11 05:33:08;;;;;;;;;;;;;;;10.05;100.00;95620.38;5085756;28;19928;-77
2023/05/11 05:35:35;;;;;;;;;;;;;;;9.99;100.00;95625.09;5078602;28;19925;-76
2023/05/11 05:38:01;;;;;;;;;;;;;;;10.08;100.00;95627.09;5076382;28;20315;-76
2023/05/11 05:40:27;;;;;;;;;;;;;;;10.02;100.00;95617.16;5076126;28;19928;-75
2023/05/11 05:42:54;;;;;;;;;;;;;;;10.05;100.00;95625.56;5084152;28;19932;-75
2023/05/11 05:45:20;;;;;;;;;;;;;;;10.12;100.00;95625.97;5089050;28;20015;-75
2023/05/11 05:47:47;;;;;;;;;;;;;;;10.04;100.00;95623.88;5082828;28;20027;-75
2023/05/11 05:50:15;;;;;;;;;;;;;;;10.05;100.00;95630.72;5079990;28;19928;-75
2023/05/11 05:52:41;;;;;;;;;;;;;;;9.96;100.00;95626.13;5087337;28;19973;-76
2023/05/11 05:55:08;;;;;;;;;;;;;;;9.87;100.00;95624.94;5078769;28;20287;-75
2023/05/11 05:57:35;;;;;;;;;;;;;;;9.95;100.00;95627.03;5089031;28;20390;-75
2023/05/11 06:00:01;;;;;;;;;;;;;;;9.90;100.00;95622.16;5081722;28;19990;-75
2023/05/11 06:02:27;;;;;;;;;;;;;;;9.87;100.00;95621.53;5087627;28;19928;-75
2023/05/11 06:04:53;;;;;;;;;;;;;;;9.94;100.00;95627.97;5080803;28;19932;-75
2023/05/11 06:07:21;;;;;;;;;;;;;;;9.87;100.00;95624.94;5074672;28;19948;-76
2023/05/11 06:09:47;;;;;;;;;;;;;;;9.89;100.00;95627.41;5085835;28;19924;-75
2023/05/11 06:12:14;;;;;;;;;;;;;;;9.92;100.00;95629.81;5087282;28;19991;-75
2023/05/11 06:14:41;;;;;;;;;;;;;;;9.90;100.00;95629.94;5078937;28;19935;-76
2023/05/11 06:17:07;;;;;;;;;;;;;;;9.90;100.00;95637.69;5081768;28;20015;-75
2023/05/11 06:19:33;;;;;;;;;;;;;;;9.82;100.00;95623.56;5082865;28;19932;-76
2023/05/11 06:21:59;;;;;;;;;;;;;;;9.82;100.00;95629.56;5085051;28;19934;-76
2023/05/11 06:24:27;;;;;;;;;;;;;;;9.92;100.00;95625.47;5078012;28;19974;-75
2023/05/11 06:26:54;;;;;;;;;;;;;;;9.94;100.00;95626.22;5091553;28;19928;-75
2023/05/11 06:29:21;;;;;;;;;;;;;;;10.04;100.00;95630.81;5088627;28;19928;-75
2023/05/11 06:31:51;;;;;;;;;;;;;;;9.98;100.00;95626.88;5090650;28;20409;-75
2023/05/11 06:34:18;;;;;;;;;;;;;;;10.02;100.00;95624.91;5077707;28;19924;-75
2023/05/11 06:36:44;;;;;;;;;;;;;;;10.17;100.00;95623.94;5082247;28;19928;-75
2023/05/11 06:39:10;;;;;;;;;;;;;;;10.29;100.00;95617.19;5083992;28;19928;-75
2023/05/11 06:41:38;;;;;;;;;;;;;;;10.19;100.00;95622.06;5086297;28;20409;-76
2023/05/11 06:44:05;;;;;;;;;;;;;;;10.22;100.00;95627.06;5076315;28;19925;-75
2023/05/11 06:46:31;;;;;;;;;;;;;;;10.17;100.00;95626.53;5068346;28;20007;-75
2023/05/11 06:48:57;;;;;;;;;;;;;;;10.25;100.00;95621.72;5077537;28;19924;-76
2023/05/11 06:51:24;;;;;;;;;;;;;;;10.36;100.00;95618.44;5091463;28;19928;-76
2023/05/11 06:53:50;;;;;;;;;;;;;;;10.49;100.00;95619.28;5078301;28;19928;-76
2023/05/11 06:56:17;;;;;;;;;;;;;;;10.51;100.00;95621.81;5090235;28;19928;-76
2023/05/11 06:58:44;;;;;;;;;;;;;;;10.54;100.00;95622.44;5086415;28;19932;-76
2023/05/11 07:01:11;;;;;;;;;;;;;;;10.59;100.00;95617.78;5089033;28;19954;-76
2023/05/11 07:03:37;;;;;;;;;;;;;;;10.65;100.00;95613.97;5086139;28;20297;-76
2023/05/11 07:06:03;;;;;;;;;;;;;;;10.64;100.00;95617.47;5084748;28;19947;-76
2023/05/11 07:08:29;;;;;;;;;;;;;;;10.63;100.00;95626.19;5087812;28;19986;-76
2023/05/11 07:10:56;;;;;;;;;;;;;;;10.53;100.00;95622.53;5087764;28;19923;-76
2023/05/11 07:13:22;;;;;;;;;;;;;;;10.55;100.00;95624.09;5092014;28;20287;-76
2023/05/11 07:15:50;;;;;;;;;;;;;;;10.78;100.00;95634.72;5087590;28;20333;-76
2023/05/11 07:18:16;;;;;;;;;;;;;;;10.79;100.00;95633.78;5084166;28;19931;-77
2023/05/11 07:20:43;;;;;;;;;;;;;;;10.75;100.00;95635.72;5085020;28;20007;-73
2023/05/11 07:23:10;;;;;;;;;;;;;;;10.70;100.00;95634.38;5079472;28;19954;-75
2023/05/11 07:25:36;;;;;;;;;;;;;;;10.57;100.00;95632.59;5086531;28;19931;-72
2023/05/11 07:28:02;;;;;;;;;;;;;;;10.46;100.00;95635.06;5083519;28;19924;-73
2023/05/11 07:30:29;;;;;;;;;;;;;;;10.61;100.00;95639.25;5083518;28;20007;-73
2023/05/11 07:32:56;;;;;;;;;;;;;;;10.70;100.00;95645.56;5081547;28;20393;-73
2023/05/11 07:35:23;;;;;;;;;;;;;;;10.70;100.00;95640.38;5064883;28;19930;-74
2023/05/11 07:37:49;;;;;;;;;;;;;;;10.63;100.00;95639.13;5083542;28;19929;-74
2023/05/11 07:40:15;;;;;;;;;;;;;;;10.68;100.00;95644.00;5074917;28;19928;-72
2023/05/11 07:42:41;;;;;;;;;;;;;;;10.53;100.00;95645.81;5082226;28;20326;-72
2023/05/11 07:45:08;;;;;;;;;;;;;;;10.39;100.00;95649.31;5083816;28;19989;-73
2023/05/11 07:47:35;;;;;;;;;;;;;;;10.52;100.00;95644.19;5077573;28;19928;-73
2023/05/11 07:50:02;;;;;;;;;;;;;;;10.44;100.00;95646.44;5090258;28;19925;-72
2023/05/11 07:52:29;;;;;;;;;;;;;;;10.44;100.00;95642.09;5075094;28;19929;-75
2023/05/11 07:54:55;;;;;;;;;;;;;;;10.58;100.00;95639.44;5079679;28;19936;-72
2023/05/11 07:57:21;;;;;;;;;;;;;;;10.77;100.00;95649.41;5079030;28;19924;-72
2023/05/11 07:59:48;;;;;;;;;;;;;;;10.70;100.00;95647.34;5081610;28;19924;-72
2023/05/11 08:02:14;;;;;;;;;;;;;;;10.76;100.00;95647.78;5088644;28;19934;-72
2023/05/11 08:04:40;;;;;;;;;;;;;;;10.91;100.00;95651.13;5080591;28;20406;-73
2023/05/11 08:07:08;;;;;;;;;;;;;;;11.01;100.00;95646.13;5078572;28;20018;-73
2023/05/11 08:09:34;;;;;;;;;;;;;;;10.96;100.00;95645.63;5087993;28;20022;-73
2023/05/11 08:12:01;;;;;;;;;;;;;;;10.88;100.00;95640.94;5094464;28;20298;-73
2023/05/11 08:14:27;;;;;;;;;;;;;;;10.94;100.00;95645.75;5088332;28;19967;-73
2023/05/11 08:16:53;;;;;;;;;;;;;;;11.05;100.00;95642.41;5093442;28;19927;-74
2023/05/11 08:19:20;;;;;;;;;;;;;;;11.08;100.00;95656.00;5086911;28;19924;-74
2023/05/11 08:21:46;;;;;;;;;;;;;;;11.11;100.00;95648.00;5091097;28;19981;-75
2023/05/11 08:24:14;;;;;;;;;;;;;;;11.21;100.00;95648.25;5090050;28;19974;-74
2023/05/11 08:26:40;;;;;;;;;;;;;;;11.06;100.00;95646.69;5090987;28;19935;-74
2023/05/11 08:29:07;;;;;;;;;;;;;;;10.90;100.00;95647.69;5088443;28;19971;-76
2023/05/11 08:31:33;;;;;;;;;;;;;;;10.80;100.00;95645.81;5090761;28;20361;-75
2023/05/11 08:34:00;;;;;;;;;;;;;;;10.71;100.00;95646.41;5077558;28;19924;-75
2023/05/11 08:36:26;;;;;;;;;;;;;;;10.67;100.00;95650.94;5087637;28;19924;-75
2023/05/11 08:38:52;;;;;;;;;;;;;;;10.77;100.00;95651.19;5085482;28;20009;-75
2023/05/11 08:41:20;;;;;;;;;;;;;;;10.98;100.00;95651.53;5076571;28;19929;-75
2023/05/11 08:43:47;;;;;;;;;;;;;;;10.92;100.00;95655.34;5083243;28;19928;-75
2023/05/11 08:46:17;;;;;;;;;;;;;;;10.89;100.00;95647.78;5087943;28;19924;-75
2023/05/11 08:48:44;;;;;;;;;;;;;;;10.95;100.00;95647.38;5087889;28;19927;-75
2023/05/11 08:51:10;;;;;;;;;;;;;;;10.90;100.00;95649.44;5095357;28;19989;-75
2023/05/11 08:53:37;;;;;;;;;;;;;;;10.98;100.00;95654.97;5092847;28;19924;-75
2023/05/11 08:56:06;;;;;;;;;;;;;;;10.84;100.00;95650.69;5087552;28;20424;-75
2023/05/11 08:58:36;;;;;;;;;;;;;;;10.90;100.00;95652.03;5091496;28;20326;-75
2023/05/11 09:01:02;;;;;;;;;;;;;;;10.81;100.00;95656.06;5083833;28;19923;-75
2023/05/11 09:03:29;;;;;;;;;;;;;;;10.94;100.00;95650.91;5090107;28;19993;-75
2023/05/11 09:05:55;;;;;;;;;;;;;;;11.00;100.00;95652.25;5085207;28;19932;-75
2023/05/11 09:08:22;;;;;;;;;;;;;;;10.86;100.00;95648.84;5089025;28;19924;-75
2023/05/11 09:10:49;;;;;;;;;;;;;;;10.85;100.00;95657.53;5086490;28;19929;-75
2023/05/11 09:13:15;;;;;;;;;;;;;;;11.06;100.00;95644.91;5080456;28;19978;-76
2023/05/11 09:15:43;;;;;;;;;;;;;;;11.30;100.00;95646.78;5089857;28;20015;-75
2023/05/11 09:18:09;;;;;;;;;;;;;;;11.45;100.00;95648.34;5079862;28;19931;-78
2023/05/11 09:20:35;;;;;;;;;;;;;;;11.61;100.00;95650.72;5084354;28;19925;-76
2023/05/11 09:23:02;;;;;;;;;;;;;;;11.73;100.00;95655.06;5091799;28;19925;-76
2023/05/11 09:25:29;;;;;;;;;;;;;;;11.44;100.00;95648.44;5081766;28;19935;-76
2023/05/11 09:27:57;;;;;;;;;;;;;;;11.39;100.00;95646.19;5087845;28;20415;-75
2023/05/11 09:30:23;;;;;;;;;;;;;;;11.55;100.00;95641.59;5081178;28;20387;-76
2023/05/11 09:32:52;;;;;;;;;;;;;;;11.36;100.00;95642.03;5086325;28;20271;-76
2023/05/11 09:35:19;;;;;;;;;;;;;;;11.37;100.00;95643.66;5090877;28;19969;-76
2023/05/11 09:37:56;;;;;;;;;;;;;;;11.57;100.00;95644.09;5089932;28;20282;-75
2023/05/11 09:40:22;;;;;;;;;;;;;;;11.90;100.00;95646.13;5089966;28;20023;-75
2023/05/11 09:42:48;;;;;;;;;;;;;;;11.86;100.00;95640.34;5079441;28;19928;-76
2023/05/11 09:45:34;;;;;;;;;;;;;;;11.67;100.00;95633.91;5080835;28;19924;-75
2023/05/11 09:48:02;;;;;;;;;;;;;;;11.64;100.00;95642.72;5066051;28;20009;-75
2023/05/11 09:50:31;;;;;;;;;;;;;;;11.69;100.00;95645.00;5082905;28;19928;-75
2023/05/11 09:52:58;;;;;;;;;;;;;;;11.63;100.00;95646.25;5082708;28;20309;-75
2023/05/11 09:55:24;;;;;;;;;;;;;;;11.42;100.00;95643.38;5086052;28;19931;-75
2023/05/11 09:57:53;;;;;;;;;;;;;;;11.38;100.00;95645.34;5088273;28;19924;-76
2023/05/11 10:00:19;;;;;;;;;;;;;;;11.23;100.00;95636.00;5087440;28;19924;-75
2023/05/11 10:02:46;;;;;;;;;;;;;;;11.26;100.00;95640.16;5085927;28;19932;-75
2023/05/11 10:05:13;;;;;;;;;;;;;;;11.58;100.00;95645.75;5080524;28;19924;-75
2023/05/11 10:07:40;;;;;;;;;;;;;;;11.73;100.00;95647.28;5082201;28;19950;-75
2023/05/11 10:10:08;;;;;;;;;;;;;;;11.48;100.00;95644.72;5077021;28;20282;-75
2023/05/11 10:12:37;;;;;;;;;;;;;;;11.45;100.00;95640.56;5075830;28;19963;-75
2023/05/11 10:15:04;;;;;;;;;;;;;;;11.63;100.00;95639.28;5069646;28;19928;-77
2023/05/11 10:17:31;;;;;;;;;;;;;;;11.95;100.00;95636.25;5078111;28;19931;-75
2023/05/11 10:19:57;;;;;;;;;;;;;;;11.95;100.00;95635.44;5081277;28;19924;-76
2023/05/11 10:22:26;;;;;;;;;;;;;;;11.82;100.00;95638.84;5076306;28;20337;-75
2023/05/11 10:24:53;;;;;;;;;;;;;;;11.80;100.00;95632.94;5081166;28;19928;-75
2023/05/11 10:27:19;;;;;;;;;;;;;;;11.86;100.00;95642.94;5088315;28;19928;-75
2023/05/11 10:29:46;;;;;;;;;;;;;;;11.96;100.00;95630.13;5086181;28;19933;-75
2023/05/11 10:32:13;;;;;;;;;;;;;;;12.22;100.00;95633.47;5086802;28;19924;-75
2023/05/11 10:34:39;;;;;;;;;;;;;;;12.02;100.00;95631.47;5084112;28;20619;-75
2023/05/11 10:37:06;;;;;;;;;;;;;;;11.84;100.00;95633.59;5087335;28;19966;-76
2023/05/11 10:39:36;;;;;;;;;;;;;;;12.14;100.00;95629.78;5084450;28;20015;-75
2023/05/11 10:42:11;;;;;;;;;;;;;;;12.17;100.00;95634.75;5077035;28;20046;-75
2023/05/11 10:44:55;;;;;;;;;;;;;;;12.27;100.00;95634.00;5084068;28;19929;-75
2023/05/11 10:47:31;;;;;;;;;;;;;;;12.20;100.00;95631.91;5077719;28;20032;-75
2023/05/11 10:50:13;;;;;;;;;;;;;;;12.04;100.00;95627.00;5076835;28;20275;-75
2023/05/11 10:52:47;;;;;;;;;;;;;;;11.94;100.00;95620.78;5085636;28;19924;-76
2023/05/11 10:55:17;;;;;;;;;;;;;;;12.40;100.00;95623.53;5077921;28;20398;-75
2023/05/11 10:57:55;;;;;;;;;;;;;;;12.60;100.00;95616.88;5077606;28;19979;-76
2023/05/11 11:00:42;;;;;;;;;;;;;;;12.56;100.00;95620.66;5091362;28;20007;-76
2023/05/11 11:03:09;;;;;;;;;;;;;;;12.59;100.00;95617.84;5070326;28;19928;-76
2023/05/11 11:05:36;;;;;;;;;;;;;;;12.51;100.00;95615.78;5089603;28;19928;-75
2023/05/11 11:08:03;;;;;;;;;;;;;;;12.33;100.00;95620.53;5078426;28;20369;-75
2023/05/11 11:10:31;;;;;;;;;;;;;;;12.40;100.00;95612.31;5089279;28;19924;-75
2023/05/11 11:13:01;;;;;;;;;;;;;;;12.47;100.00;95608.34;5086615;28;19977;-75
2023/05/11 11:15:49;;;;;;;;;;;;;;;12.44;100.00;95608.56;5089762;28;20362;-75
2023/05/11 11:18:19;;;;;;;;;;;;;;;12.42;100.00;95597.44;5079544;28;19954;-76
2023/05/11 11:20:47;;;;;;;;;;;;;;;12.45;100.00;95605.00;5073457;28;19952;-76
2023/05/11 11:23:28;;;;;;;;;;;;;;;12.01;100.00;95611.63;5083247;28;19928;-77
2023/05/11 11:25:56;;;;;;;;;;;;;;;12.10;100.00;95608.41;5074060;28;20031;-76
2023/05/11 11:28:23;;;;;;;;;;;;;;;12.23;100.00;95609.16;5078228;28;19924;-76
2023/05/11 11:31:15;;;;;;;;;;;;;;;12.49;100.00;95607.28;5076569;28;19998;-77
2023/05/11 11:33:41;;;;;;;;;;;;;;;12.25;100.00;95609.88;5068120;28;19924;-79
2023/05/11 11:36:07;;;;;;;;;;;;;;;12.41;100.00;95604.41;5072545;28;19924;-78
2023/05/11 11:38:54;;;;;;;;;;;;;;;12.40;100.00;95609.72;5080964;28;19928;-76
2023/05/11 11:41:29;;;;;;;;;;;;;;;12.62;100.00;95609.00;5065810;28;20400;-77
2023/05/11 11:43:56;;;;;;;;;;;;;;;12.65;100.00;95606.19;5057669;28;19931;-79
2023/05/11 11:46:26;;;;;;;;;;;;;;;12.25;100.00;95609.06;5072797;28;19936;-77
2023/05/11 11:48:52;;;;;;;;;;;;;;;12.58;100.00;95609.22;5074423;28;20023;-77
2023/05/11 11:51:18;;;;;;;;;;;;;;;12.84;100.00;95601.25;5077463;28;19969;-77
2023/05/11 11:54:06;;;;;;;;;;;;;;;13.01;100.00;95600.00;5072980;28;20317;-76
2023/05/11 11:56:42;;;;;;;;;;;;;;;12.92;100.00;95606.72;5084337;28;20007;-77
2023/05/11 11:59:13;;;;;;;;;;;;;;;12.97;100.00;95599.38;5065375;28;19928;-78
2023/05/11 12:01:40;;;;;;;;;;;;;;;12.87;100.00;95602.78;5065863;28;19962;-76
2023/05/11 12:04:17;;;;;;;;;;;;;;;12.89;100.00;95598.31;5083489;28;19925;-76
2023/05/11 12:06:46;;;;;;;;;;;;;;;12.95;100.00;95592.66;5081371;28;19929;-76
2023/05/11 12:09:17;;;;;;;;;;;;;;;12.95;100.00;95596.09;5086036;28;19928;-77
2023/05/11 12:11:46;;;;;;;;;;;;;;;12.99;100.00;95599.28;5077060;28;19938;-77
2023/05/11 12:14:12;;;;;;;;;;;;;;;13.06;100.00;95593.50;5079818;28;19928;-77
2023/05/11 12:16:38;;;;;;;;;;;;;;;12.79;100.00;95593.81;5077699;28;19947;-77
2023/05/11 12:19:05;;;;;;;;;;;;;;;12.89;100.00;95583.53;5086009;28;19924;-77
2023/05/11 12:21:31;;;;;;;;;;;;;;;12.76;100.00;95594.03;5082774;28;19966;-76
2023/05/11 12:23:58;;;;;;;;;;;;;;;12.81;100.00;95593.69;5070316;28;19997;-76
2023/05/11 12:26:25;;;;;;;;;;;;;;;12.87;100.00;95589.78;5079816;28;19924;-77
2023/05/11 12:29:06;;;;;;;;;;;;;;;12.96;100.00;95594.31;5081645;28;20337;-77
2023/05/11 12:31:34;;;;;;;;;;;;;;;13.08;100.00;95586.41;5082798;28;20680;-77
2023/05/11 12:34:01;;;;;;;;;;;;;;;13.07;100.00;95582.16;5070040;28;20472;-77
2023/05/11 12:36:27;;;;;;;;;;;;;;;13.04;100.00;95594.56;5080489;28;19925;-78
2023/05/11 12:38:53;;;;;;;;;;;;;;;13.06;100.00;95587.50;5082440;28;20022;-77
2023/05/11 12:41:21;;;;;;;;;;;;;;;12.87;100.00;95582.00;5084039;28;19986;-76